createdAt,value
2018-07-30T00:01:35.759Z,24.10
2018-07-30T00:04:05.356Z,24.10
2018-07-30T00:06:42.545Z,24.10
2018-07-30T00:09:18.336Z,24.00
2018-07-30T00:11:49.844Z,24.00
2018-07-30T00:14:26.015Z,23.90
2018-07-30T00:16:58.985Z,23.90
2018-07-30T00:19:29.783Z,23.80
2018-07-30T00:22:07.648Z,23.80
2018-07-30T00:24:37.381Z,23.70
2018-07-30T00:27:09.680Z,23.70
2018-07-30T00:29:41.008Z,23.80
2018-07-30T00:32:12.980Z,23.80
2018-07-30T00:34:47.923Z,23.80
2018-07-30T00:37:24.654Z,23.80
2018-07-30T00:39:57.659Z,23.80
2018-07-30T00:42:28.670Z,23.60
2018-07-30T00:44:58.442Z,23.50
2018-07-30T00:47:31.014Z,23.60
2018-07-30T00:50:01.364Z,23.50
2018-07-30T00:52:35.687Z,23.50
2018-07-30T00:55:14.044Z,23.40
2018-07-30T00:57:46.868Z,23.40
2018-07-30T01:00:17.668Z,23.40
2018-07-30T01:02:47.304Z,23.40
2018-07-30T01:05:19.885Z,23.30
2018-07-30T01:07:51.764Z,23.30
2018-07-30T01:10:23.259Z,23.30
2018-07-30T01:12:57.858Z,23.20
2018-07-30T01:15:28.926Z,23.20
2018-07-30T01:18:07.959Z,23.20
2018-07-30T01:20:38.742Z,23.20
2018-07-30T01:23:15.523Z,23.20
2018-07-30T01:25:48.215Z,23.10
2018-07-30T01:28:21.225Z,23.10
2018-07-30T01:30:53.124Z,23.10
2018-07-30T01:33:25.931Z,23.10
2018-07-30T01:36:01.543Z,23.00
2018-07-30T01:38:32.565Z,23.00
2018-07-30T01:41:07.772Z,23.00
2018-07-30T01:43:37.303Z,23.00
2018-07-30T01:46:09.224Z,23.00
2018-07-30T01:48:39.160Z,23.00
2018-07-30T01:51:11.127Z,22.90
2018-07-30T01:53:41.016Z,22.90
2018-07-30T01:56:12.232Z,22.90
2018-07-30T01:58:43.744Z,22.80
2018-07-30T02:01:15.728Z,22.70
2018-07-30T02:03:49.724Z,22.70
2018-07-30T02:06:20.233Z,22.70
2018-07-30T02:08:52.291Z,22.70
2018-07-30T02:11:25.479Z,22.70
2018-07-30T02:13:56.783Z,22.70
2018-07-30T02:16:32.663Z,22.60
2018-07-30T02:19:05.670Z,22.60
2018-07-30T02:21:39.120Z,22.60
2018-07-30T02:24:15.719Z,22.60
2018-07-30T02:26:53.626Z,22.60
2018-07-30T02:29:25.958Z,22.50
2018-07-30T02:32:02.205Z,22.50
2018-07-30T02:34:34.979Z,22.40
2018-07-30T02:37:07.646Z,22.40
2018-07-30T02:39:40.419Z,22.40
2018-07-30T02:42:13.969Z,22.40
2018-07-30T02:44:49.567Z,22.30
2018-07-30T02:47:24.712Z,22.20
2018-07-30T02:50:02.824Z,22.20
2018-07-30T02:52:33.184Z,22.10
2018-07-30T02:55:03.184Z,22.00
2018-07-30T02:57:34.882Z,21.90
2018-07-30T03:00:07.431Z,21.90
2018-07-30T03:02:39.236Z,22.00
2018-07-30T03:05:13.163Z,22.00
2018-07-30T03:07:45.232Z,21.90
2018-07-30T03:10:18.744Z,21.90
2018-07-30T03:12:50.707Z,21.90
2018-07-30T03:15:25.854Z,22.00
2018-07-30T03:17:59.545Z,21.90
2018-07-30T03:20:30.450Z,21.90
2018-07-30T03:23:02.441Z,21.90
2018-07-30T03:25:33.919Z,21.90
2018-07-30T03:28:05.990Z,21.80
2018-07-30T03:30:39.274Z,21.80
2018-07-30T03:33:10.621Z,21.80
2018-07-30T03:35:38.273Z,21.80
2018-07-30T03:38:05.974Z,21.80
2018-07-30T03:40:33.675Z,21.80
2018-07-30T03:43:01.343Z,21.80
2018-07-30T03:45:29.007Z,21.70
2018-07-30T03:47:56.667Z,21.80
2018-07-30T03:50:24.424Z,21.70
2018-07-30T03:52:52.165Z,21.70
2018-07-30T03:55:19.887Z,21.70
2018-07-30T03:57:47.576Z,21.70
2018-07-30T04:00:15.312Z,21.70
2018-07-30T04:02:43.447Z,21.70
2018-07-30T04:05:11.154Z,21.70
2018-07-30T04:07:38.835Z,21.70
2018-07-30T04:10:07.339Z,21.70
2018-07-30T04:12:35.011Z,21.70
2018-07-30T04:15:02.722Z,21.70
2018-07-30T04:17:30.356Z,21.60
2018-07-30T04:19:58.037Z,21.60
2018-07-30T04:22:25.716Z,21.60
2018-07-30T04:24:53.358Z,21.60
2018-07-30T04:27:21.028Z,21.60
2018-07-30T04:29:48.680Z,21.60
2018-07-30T04:32:16.329Z,21.60
2018-07-30T04:34:43.953Z,21.60
2018-07-30T04:37:11.618Z,21.70
2018-07-30T04:39:39.241Z,21.70
2018-07-30T04:42:06.935Z,21.70
2018-07-30T04:44:34.615Z,21.80
2018-07-30T04:47:02.291Z,21.80
2018-07-30T04:49:29.933Z,21.80
2018-07-30T04:51:57.595Z,21.90
2018-07-30T04:54:25.233Z,21.90
2018-07-30T04:56:52.883Z,22.00
2018-07-30T04:59:20.532Z,22.10
2018-07-30T05:01:48.231Z,22.10
2018-07-30T05:04:15.907Z,22.10
2018-07-30T05:06:43.557Z,22.20
2018-07-30T05:09:11.196Z,22.20
2018-07-30T05:11:38.870Z,22.20
2018-07-30T05:14:06.527Z,22.30
2018-07-30T05:16:34.211Z,22.40
2018-07-30T05:19:01.858Z,22.40
2018-07-30T05:21:29.511Z,22.40
2018-07-30T05:23:57.173Z,22.50
2018-07-30T05:26:24.880Z,22.50
2018-07-30T05:28:52.543Z,22.50
2018-07-30T05:31:20.175Z,22.60
2018-07-30T05:33:47.855Z,22.70
2018-07-30T05:36:15.538Z,22.70
2018-07-30T05:38:43.223Z,22.60
2018-07-30T05:41:10.868Z,22.60
2018-07-30T05:43:38.521Z,22.60
2018-07-30T05:46:06.195Z,22.60
2018-07-30T05:48:33.887Z,22.70
2018-07-30T05:51:01.528Z,22.80
2018-07-30T05:53:29.258Z,23.00
2018-07-30T05:55:56.899Z,23.00
2018-07-30T05:58:24.559Z,23.00
2018-07-30T06:00:52.223Z,23.10
2018-07-30T06:03:19.994Z,23.10
2018-07-30T06:05:47.657Z,23.20
2018-07-30T06:08:15.333Z,23.30
2018-07-30T06:10:43.032Z,23.40
2018-07-30T06:13:10.739Z,23.40
2018-07-30T06:15:38.355Z,23.50
2018-07-30T06:18:06.059Z,23.50
2018-07-30T06:20:33.743Z,23.60
2018-07-30T06:23:01.406Z,23.60
2018-07-30T06:25:29.078Z,23.70
2018-07-30T06:27:56.747Z,23.70
2018-07-30T06:30:24.434Z,23.70
2018-07-30T06:32:52.091Z,23.80
2018-07-30T06:35:19.764Z,23.80
2018-07-30T06:37:47.400Z,23.90
2018-07-30T06:40:15.091Z,24.00
2018-07-30T06:42:42.894Z,24.00
2018-07-30T06:45:10.568Z,24.00
2018-07-30T06:47:38.211Z,24.10
2018-07-30T06:50:05.891Z,24.10
2018-07-30T06:52:33.589Z,24.20
2018-07-30T06:55:01.234Z,24.30
2018-07-30T06:57:28.939Z,24.40
2018-07-30T06:59:56.590Z,24.60
2018-07-30T07:02:24.319Z,24.70
2018-07-30T07:04:55.886Z,24.80
2018-07-30T07:07:25.288Z,24.90
2018-07-30T07:09:55.367Z,24.90
2018-07-30T07:12:30.718Z,24.90
2018-07-30T07:15:05.908Z,25.00
2018-07-30T07:17:40.894Z,25.10
2018-07-30T07:20:14.591Z,25.30
2018-07-30T07:22:46.415Z,25.40
2018-07-30T07:25:17.980Z,25.50
2018-07-30T07:27:52.235Z,25.60
2018-07-30T07:30:31.615Z,25.70
2018-07-30T07:33:24.145Z,25.80
2018-07-30T07:36:10.393Z,25.90
2018-07-30T07:38:50.223Z,26.00
2018-07-30T07:41:53.350Z,26.10
2018-07-30T07:44:35.068Z,26.20
2018-07-30T07:50:56.945Z,26.30
2018-07-30T07:54:13.388Z,26.30
2018-07-30T07:56:55.302Z,26.50
2018-07-30T07:59:28.878Z,26.60
2018-07-30T08:01:59.357Z,26.60
2018-07-30T08:04:32.502Z,26.60
2018-07-30T08:07:02.203Z,26.80
2018-07-30T08:09:34.354Z,26.90
2018-07-30T08:15:16.784Z,27.20
2018-07-30T08:17:47.039Z,27.40
2018-07-30T08:20:21.372Z,27.40
2018-07-30T08:23:00.767Z,27.50
2018-07-30T08:28:29.463Z,27.80
2018-07-30T08:31:00.499Z,28.00
2018-07-30T08:33:34.836Z,28.00
2018-07-30T08:36:10.302Z,28.10
2018-07-30T08:38:44.322Z,28.20
2018-07-30T08:41:23.494Z,28.10
2018-07-30T08:43:57.836Z,28.30
2018-07-30T08:46:30.720Z,28.30
2018-07-30T08:49:01.285Z,28.40
2018-07-30T08:51:35.588Z,28.60
2018-07-30T08:54:13.357Z,28.60
2018-07-30T08:56:48.845Z,28.70
2018-07-30T08:59:20.098Z,28.90
2018-07-30T09:01:56.009Z,29.00
2018-07-30T09:04:28.652Z,29.10
2018-07-30T09:07:03.273Z,29.10
2018-07-30T09:09:42.343Z,29.00
2018-07-30T09:12:16.238Z,29.10
2018-07-30T09:14:52.008Z,29.30
2018-07-30T09:17:35.850Z,29.40
2018-07-30T09:20:12.876Z,29.40
2018-07-30T09:22:44.576Z,29.60
2018-07-30T09:25:42.794Z,29.60
2018-07-30T09:28:19.273Z,29.60
2018-07-30T09:30:51.417Z,29.60
2018-07-30T09:33:26.677Z,29.90
2018-07-30T09:36:01.831Z,30.00
2018-07-30T09:38:32.311Z,30.10
2018-07-30T09:41:04.849Z,30.20
2018-07-30T09:43:41.001Z,30.20
2018-07-30T09:46:16.263Z,30.40
2018-07-30T09:48:59.107Z,30.50
2018-07-30T10:30:59.677Z,31.10
2018-07-30T10:33:37.974Z,32.30
2018-07-30T10:36:09.676Z,32.20
2018-07-30T10:38:46.776Z,32.10
2018-07-30T10:41:16.299Z,31.90
2018-07-30T11:04:01.975Z,31.80
2018-07-30T11:06:35.948Z,31.90
2018-07-30T11:09:13.803Z,32.00
2018-07-30T11:11:45.390Z,32.20
2018-07-30T11:14:17.560Z,32.30
2018-07-30T11:16:58.775Z,32.40
2018-07-30T11:19:39.823Z,32.50
2018-07-30T11:25:01.229Z,32.90
2018-07-30T11:27:35.599Z,33.10
2018-07-30T11:30:08.756Z,33.30
2018-07-30T11:35:46.416Z,33.50
2018-07-30T11:38:27.415Z,33.60
2018-07-30T11:41:18.447Z,33.70
2018-07-30T11:44:08.445Z,33.90
2018-07-30T11:46:38.152Z,33.90
2018-07-30T11:57:27.917Z,34.20
2018-07-30T12:03:27.573Z,34.20
2018-07-30T12:09:00.923Z,33.70
2018-07-30T12:11:28.730Z,33.60
2018-07-30T12:13:56.488Z,33.60
2018-07-30T12:16:35.615Z,33.70
2018-07-30T12:21:56.893Z,34.00
2018-07-30T12:24:36.011Z,34.30
2018-07-30T12:27:10.232Z,34.50
2018-07-30T12:32:41.656Z,34.70
2018-07-30T12:35:21.082Z,34.80
2018-07-30T12:41:00.959Z,35.10
2018-07-30T12:43:30.891Z,35.20
2018-07-30T12:48:59.583Z,35.60
2018-07-30T12:52:18.178Z,35.60
2018-07-30T12:55:07.233Z,35.70
2018-07-30T12:57:53.260Z,35.60
2018-07-30T13:00:38.166Z,35.70
2018-07-30T13:03:27.656Z,35.70
2018-07-30T13:05:59.408Z,35.70
2018-07-30T13:08:27.152Z,35.70
2018-07-30T13:10:54.903Z,35.90
2018-07-30T13:13:22.570Z,36.00
2018-07-30T13:16:04.051Z,36.10
2018-07-30T13:18:32.723Z,36.30
2018-07-30T13:21:10.755Z,36.40
2018-07-30T13:23:39.061Z,36.60
2018-07-30T13:26:06.835Z,36.70
2018-07-30T13:28:53.033Z,36.80
2018-07-30T13:31:35.024Z,36.70
2018-07-30T13:34:19.360Z,36.60
2018-07-30T13:37:07.044Z,36.60
2018-07-30T13:39:35.220Z,36.50
2018-07-30T13:44:55.352Z,36.00
2018-07-30T13:47:40.688Z,36.10
2018-07-30T13:53:15.238Z,36.10
2018-07-30T13:55:54.988Z,36.10
2018-07-30T13:58:32.824Z,36.10
2018-07-30T14:01:14.085Z,36.10
2018-07-30T14:03:43.666Z,36.10
2018-07-30T14:06:29.925Z,36.20
2018-07-30T14:09:15.936Z,36.30
2018-07-30T14:11:57.377Z,35.90
2018-07-30T14:17:16.628Z,35.60
2018-07-30T14:22:50.941Z,35.50
2018-07-30T14:25:25.805Z,35.60
2018-07-30T14:28:03.144Z,35.70
2018-07-30T14:42:36.780Z,35.80
2018-07-30T14:45:34.357Z,35.80
2018-07-30T14:48:15.847Z,35.60
2018-07-30T14:50:43.613Z,35.50
2018-07-30T14:56:26.329Z,35.60
2018-07-30T14:59:15.585Z,35.60
2018-07-30T15:02:01.413Z,35.60
2018-07-30T15:04:47.811Z,35.70
2018-07-30T15:07:23.485Z,35.70
2018-07-30T15:10:05.641Z,35.70
2018-07-30T15:12:42.712Z,35.70
2018-07-30T15:15:12.724Z,35.50
2018-07-30T15:17:49.003Z,35.40
2018-07-30T15:35:34.087Z,35.20
2018-07-30T15:38:08.491Z,35.20
2018-07-30T15:40:44.308Z,35.20
2018-07-30T15:43:28.120Z,35.40
2018-07-30T15:46:00.887Z,35.30
2018-07-30T15:48:38.338Z,35.40
2018-07-30T15:51:20.910Z,35.30
2018-07-30T15:56:47.394Z,35.10
2018-07-30T15:59:25.385Z,34.80
2018-07-30T16:04:54.292Z,34.90
2018-07-30T16:07:42.755Z,34.90
2018-07-30T16:10:31.569Z,34.90
2018-07-30T16:13:30.581Z,35.00
2018-07-30T16:19:17.317Z,35.00
2018-07-30T16:22:03.381Z,35.00
2018-07-30T16:24:42.254Z,34.80
2018-07-30T16:27:28.713Z,34.70
2018-07-30T16:29:57.467Z,34.70
2018-07-30T16:32:30.794Z,34.80
2018-07-30T16:34:59.782Z,34.80
2018-07-30T16:37:27.610Z,34.70
2018-07-30T16:40:01.145Z,34.70
2018-07-30T16:48:32.763Z,34.60
2018-07-30T16:51:19.089Z,34.40
2018-07-30T16:59:36.360Z,34.50
2018-07-30T17:02:04.124Z,34.50
2018-07-30T17:04:31.899Z,34.60
2018-07-30T17:07:14.299Z,34.50
2018-07-30T17:09:42.116Z,34.40
2018-07-30T17:12:09.894Z,34.30
2018-07-30T17:14:38.703Z,34.30
2018-07-30T17:17:06.637Z,34.30
2018-07-30T17:19:42.011Z,34.30
2018-07-30T17:22:20.714Z,34.10
2018-07-30T17:27:37.323Z,34.10
2018-07-30T17:30:07.677Z,34.10
2018-07-30T17:32:35.433Z,34.00
2018-07-30T17:35:03.663Z,34.00
2018-07-30T17:37:32.766Z,33.90
2018-07-30T17:40:00.873Z,33.70
2018-07-30T17:42:29.090Z,33.40
2018-07-30T17:44:59.087Z,33.20
2018-07-30T17:47:27.646Z,33.10
2018-07-30T17:49:55.566Z,33.10
2018-07-30T17:54:52.377Z,32.60
2018-07-30T17:59:48.207Z,32.30
2018-07-30T18:02:16.365Z,32.30
2018-07-30T18:04:44.068Z,32.30
2018-07-30T18:07:11.851Z,32.20
2018-07-30T18:09:40.478Z,32.10
2018-07-30T18:12:08.177Z,32.00
2018-07-30T18:14:35.886Z,32.00
2018-07-30T18:17:03.725Z,31.90
2018-07-30T18:19:31.471Z,31.90
2018-07-30T18:21:59.273Z,31.70
2018-07-30T18:24:27.063Z,31.70
2018-07-30T18:26:54.827Z,31.70
2018-07-30T18:29:22.866Z,31.60
2018-07-30T18:31:50.771Z,31.50
2018-07-30T18:34:21.656Z,31.40
2018-07-30T18:36:49.964Z,31.40
2018-07-30T18:39:17.899Z,31.40
2018-07-30T18:41:46.451Z,31.40
2018-07-30T18:44:14.305Z,31.40
2018-07-30T18:46:43.102Z,31.40
2018-07-30T18:49:10.893Z,31.50
2018-07-30T18:51:38.665Z,31.40
2018-07-30T18:54:07.005Z,31.30
2018-07-30T18:56:34.873Z,31.20
2018-07-30T18:59:02.784Z,31.20
2018-07-30T19:01:30.716Z,31.20
2018-07-30T19:03:59.303Z,31.20
2018-07-30T19:06:27.564Z,31.20
2018-07-30T19:08:56.919Z,31.20
2018-07-30T19:11:24.980Z,31.20
2018-07-30T19:13:58.931Z,31.20
2018-07-30T19:16:27.083Z,31.10
2018-07-30T19:18:54.836Z,31.10
2018-07-30T19:21:23.784Z,31.10
2018-07-30T19:23:51.701Z,31.00
2018-07-30T19:26:20.093Z,30.90
2018-07-30T19:28:49.544Z,30.80
2018-07-30T19:31:18.649Z,30.80
2018-07-30T19:33:47.174Z,30.70
2018-07-30T19:36:15.820Z,30.70
2018-07-30T19:38:43.577Z,30.60
2018-07-30T19:41:11.707Z,30.40
2018-07-30T19:43:39.432Z,30.40
2018-07-30T19:46:07.572Z,30.20
2018-07-30T19:48:35.422Z,30.10
2018-07-30T19:51:03.417Z,30.10
2018-07-30T19:53:31.304Z,30.10
2018-07-30T19:55:59.156Z,29.90
2018-07-30T19:58:27.053Z,29.80
2018-07-30T20:00:55.267Z,29.80
2018-07-30T20:03:23.576Z,29.80
2018-07-30T20:05:51.759Z,29.70
2018-07-30T20:08:19.680Z,29.60
2018-07-30T20:10:47.726Z,29.50
2018-07-30T20:13:15.524Z,29.40
2018-07-30T20:15:43.549Z,29.20
2018-07-30T20:18:11.340Z,29.20
2018-07-30T20:20:39.315Z,29.10
2018-07-30T20:23:07.423Z,29.00
2018-07-30T20:25:35.285Z,28.80
2018-07-30T20:28:03.309Z,28.80
2018-07-30T20:30:31.395Z,28.80
2018-07-30T20:32:59.458Z,28.60
2018-07-30T20:35:27.249Z,28.50
2018-07-30T20:37:55.019Z,28.40
2018-07-30T20:40:22.800Z,28.40
2018-07-30T20:42:50.551Z,28.30
2018-07-30T20:45:18.280Z,28.20
2018-07-30T20:47:46.024Z,28.20
2018-07-30T20:50:13.733Z,28.30
2018-07-30T20:52:41.472Z,28.20
2018-07-30T20:55:09.240Z,28.10
2018-07-30T20:57:37.039Z,28.00
2018-07-30T21:00:04.996Z,27.90
2018-07-30T21:02:32.719Z,27.90
2018-07-30T21:05:00.584Z,27.80
2018-07-30T21:07:28.380Z,27.70
2018-07-30T21:09:56.172Z,27.70
2018-07-30T21:12:24.166Z,27.70
2018-07-30T21:14:51.963Z,27.80
2018-07-30T21:17:19.736Z,27.80
2018-07-30T21:19:47.474Z,27.80
2018-07-30T21:22:15.203Z,27.70
2018-07-30T21:24:42.976Z,27.70
2018-07-30T21:27:10.700Z,27.70
2018-07-30T21:29:38.469Z,27.60
2018-07-30T21:32:06.310Z,27.50
2018-07-30T21:34:34.032Z,27.50
2018-07-30T21:37:01.754Z,27.40
2018-07-30T21:39:29.530Z,27.30
2018-07-30T21:41:57.336Z,27.20
2018-07-30T21:44:25.040Z,27.10
2018-07-30T21:46:52.851Z,27.00
2018-07-30T21:49:20.560Z,27.00
2018-07-30T21:51:48.307Z,26.90
2018-07-30T21:54:16.015Z,26.90
2018-07-30T21:56:43.728Z,26.80
2018-07-30T21:59:11.484Z,26.90
2018-07-30T22:01:39.267Z,26.90
2018-07-30T22:04:07.103Z,26.70
2018-07-30T22:06:35.454Z,26.60
2018-07-30T22:09:04.833Z,26.60
2018-07-30T22:11:33.335Z,26.70
2018-07-30T22:14:01.181Z,26.60
2018-07-30T22:16:28.922Z,26.60
2018-07-30T22:18:57.451Z,26.40
2018-07-30T22:21:25.231Z,26.40
2018-07-30T22:23:53.060Z,26.50
2018-07-30T22:26:20.848Z,26.50
2018-07-30T22:28:48.546Z,26.50
2018-07-30T22:31:16.269Z,26.60
2018-07-30T22:33:44.000Z,26.50
2018-07-30T22:36:11.783Z,26.50
2018-07-30T22:38:39.725Z,26.50
2018-07-30T22:41:07.478Z,26.40
2018-07-30T22:43:35.180Z,26.40
2018-07-30T22:46:03.012Z,26.30
2018-07-30T22:48:33.028Z,26.20
2018-07-30T22:51:00.780Z,26.20
2018-07-30T22:53:28.504Z,26.20
2018-07-30T22:55:56.246Z,26.10
2018-07-30T22:58:24.378Z,26.10
2018-07-30T23:00:53.491Z,26.00
2018-07-30T23:03:21.352Z,26.00
2018-07-30T23:05:49.067Z,26.00
2018-07-30T23:08:16.812Z,26.00
2018-07-30T23:10:44.619Z,25.90
2018-07-30T23:13:12.442Z,25.80
2018-07-30T23:15:40.120Z,25.90
2018-07-30T23:18:08.621Z,25.80
2018-07-30T23:20:36.721Z,25.70
2018-07-30T23:23:04.482Z,25.70
2018-07-30T23:25:32.259Z,25.80
2018-07-30T23:27:59.999Z,25.80
2018-07-30T23:30:27.813Z,25.70
2018-07-30T23:32:55.575Z,25.70
2018-07-30T23:35:23.571Z,25.70
2018-07-30T23:37:51.263Z,25.70
2018-07-30T23:40:18.989Z,25.70
2018-07-30T23:42:47.397Z,25.60
2018-07-30T23:45:15.159Z,25.60
2018-07-30T23:47:42.892Z,25.50
2018-07-30T23:50:10.624Z,25.40
2018-07-30T23:52:38.355Z,25.30
2018-07-30T23:55:06.109Z,25.30
2018-07-30T23:57:33.873Z,25.30
